sensor_id;sensor_type;location;lat;lon;timestamp;P1;durP1;ratioP1;P2;durP2;ratioP2
20411;SDS011;10365;52.578;8.138;2023-12-20T00:00:39;13.68;;;2.15;;
20411;SDS011;10365;52.578;8.138;2023-12-20T00:03:04;18.75;;;2.40;;
20411;SDS011;10365;52.578;8.138;2023-12-20T00:05:30;10.55;;;2.28;;
20411;SDS011;10365;52.578;8.138;2023-12-20T00:07:57;11.77;;;2.40;;
20411;SDS011;10365;52.578;8.138;2023-12-20T00:10:22;12.18;;;2.35;;
20411;SDS011;10365;52.578;8.138;2023-12-20T00:12:47;8.80;;;2.33;;
20411;SDS011;10365;52.578;8.138;2023-12-20T00:15:13;11.05;;;2.55;;
20411;SDS011;10365;52.578;8.138;2023-12-20T00:17:38;16.25;;;2.25;;
20411;SDS011;10365;52.578;8.138;2023-12-20T00:20:04;15.70;;;2.50;;
20411;SDS011;10365;52.578;8.138;2023-12-20T00:22:30;10.40;;;2.33;;
20411;SDS011;10365;52.578;8.138;2023-12-20T00:24:55;8.15;;;2.03;;
20411;SDS011;10365;52.578;8.138;2023-12-20T00:27:21;9.35;;;2.50;;
20411;SDS011;10365;52.578;8.138;2023-12-20T00:29:46;9.98;;;2.03;;
20411;SDS011;10365;52.578;8.138;2023-12-20T00:32:14;12.48;;;2.00;;
20411;SDS011;10365;52.578;8.138;2023-12-20T00:34:40;13.18;;;2.28;;
20411;SDS011;10365;52.578;8.138;2023-12-20T00:37:05;14.07;;;2.55;;
20411;SDS011;10365;52.578;8.138;2023-12-20T00:39:31;18.38;;;2.40;;
20411;SDS011;10365;52.578;8.138;2023-12-20T00:41:56;11.65;;;2.63;;
20411;SDS011;10365;52.578;8.138;2023-12-20T00:44:21;13.63;;;2.40;;
20411;SDS011;10365;52.578;8.138;2023-12-20T00:46:46;11.07;;;1.58;;
20411;SDS011;10365;52.578;8.138;2023-12-20T00:49:12;9.15;;;2.03;;
20411;SDS011;10365;52.578;8.138;2023-12-20T00:51:37;9.38;;;1.65;;
20411;SDS011;10365;52.578;8.138;2023-12-20T00:54:02;8.77;;;2.05;;
20411;SDS011;10365;52.578;8.138;2023-12-20T00:56:28;11.00;;;2.10;;
20411;SDS011;10365;52.578;8.138;2023-12-20T00:58:53;7.07;;;2.40;;
20411;SDS011;10365;52.578;8.138;2023-12-20T01:01:18;13.38;;;1.98;;
20411;SDS011;10365;52.578;8.138;2023-12-20T01:03:44;20.27;;;2.10;;
20411;SDS011;10365;52.578;8.138;2023-12-20T01:06:09;15.25;;;2.28;;
20411;SDS011;10365;52.578;8.138;2023-12-20T01:08:34;9.40;;;1.77;;
20411;SDS011;10365;52.578;8.138;2023-12-20T01:11:00;11.07;;;1.88;;
20411;SDS011;10365;52.578;8.138;2023-12-20T01:13:25;16.40;;;2.13;;
20411;SDS011;10365;52.578;8.138;2023-12-20T01:15:50;13.27;;;1.83;;
20411;SDS011;10365;52.578;8.138;2023-12-20T01:18:16;13.07;;;2.25;;
20411;SDS011;10365;52.578;8.138;2023-12-20T01:20:41;6.93;;;1.73;;
20411;SDS011;10365;52.578;8.138;2023-12-20T01:23:07;23.00;;;2.15;;
20411;SDS011;10365;52.578;8.138;2023-12-20T01:25:33;14.93;;;2.38;;
20411;SDS011;10365;52.578;8.138;2023-12-20T01:27:58;8.40;;;1.50;;
20411;SDS011;10365;52.578;8.138;2023-12-20T01:30:23;19.05;;;2.10;;
20411;SDS011;10365;52.578;8.138;2023-12-20T01:32:49;9.18;;;2.10;;
20411;SDS011;10365;52.578;8.138;2023-12-20T01:35:14;10.23;;;1.83;;
20411;SDS011;10365;52.578;8.138;2023-12-20T01:37:40;14.13;;;1.85;;
20411;SDS011;10365;52.578;8.138;2023-12-20T01:40:05;7.57;;;1.95;;
20411;SDS011;10365;52.578;8.138;2023-12-20T01:42:31;14.80;;;2.38;;
20411;SDS011;10365;52.578;8.138;2023-12-20T01:44:56;11.40;;;1.83;;
20411;SDS011;10365;52.578;8.138;2023-12-20T01:47:21;9.50;;;1.58;;
20411;SDS011;10365;52.578;8.138;2023-12-20T01:49:47;11.48;;;2.35;;
20411;SDS011;10365;52.578;8.138;2023-12-20T01:52:13;14.13;;;2.00;;
20411;SDS011;10365;52.578;8.138;2023-12-20T01:54:38;13.40;;;2.25;;
20411;SDS011;10365;52.578;8.138;2023-12-20T01:57:04;12.43;;;2.38;;
20411;SDS011;10365;52.578;8.138;2023-12-20T01:59:31;16.08;;;2.50;;
20411;SDS011;10365;52.578;8.138;2023-12-20T02:01:56;9.45;;;2.15;;
20411;SDS011;10365;52.578;8.138;2023-12-20T02:04:21;16.25;;;2.53;;
20411;SDS011;10365;52.578;8.138;2023-12-20T02:06:47;12.98;;;3.10;;
20411;SDS011;10365;52.578;8.138;2023-12-20T02:09:13;12.45;;;2.80;;
20411;SDS011;10365;52.578;8.138;2023-12-20T02:11:38;12.07;;;2.75;;
20411;SDS011;10365;52.578;8.138;2023-12-20T02:14:04;15.75;;;2.88;;
20411;SDS011;10365;52.578;8.138;2023-12-20T02:16:30;9.70;;;2.72;;
20411;SDS011;10365;52.578;8.138;2023-12-20T02:18:55;13.77;;;3.00;;
20411;SDS011;10365;52.578;8.138;2023-12-20T02:21:33;15.27;;;3.20;;
20411;SDS011;10365;52.578;8.138;2023-12-20T02:24:01;11.90;;;3.17;;
20411;SDS011;10365;52.578;8.138;2023-12-20T02:26:26;10.55;;;3.05;;
20411;SDS011;10365;52.578;8.138;2023-12-20T02:28:51;13.93;;;3.13;;
20411;SDS011;10365;52.578;8.138;2023-12-20T02:31:20;9.68;;;2.88;;
20411;SDS011;10365;52.578;8.138;2023-12-20T02:33:45;16.58;;;4.13;;
20411;SDS011;10365;52.578;8.138;2023-12-20T02:36:10;19.75;;;4.00;;
20411;SDS011;10365;52.578;8.138;2023-12-20T02:38:36;13.23;;;3.17;;
20411;SDS011;10365;52.578;8.138;2023-12-20T02:41:01;13.10;;;3.63;;
20411;SDS011;10365;52.578;8.138;2023-12-20T02:43:26;15.48;;;4.30;;
20411;SDS011;10365;52.578;8.138;2023-12-20T02:45:54;15.98;;;3.65;;
20411;SDS011;10365;52.578;8.138;2023-12-20T02:48:19;19.63;;;3.55;;
20411;SDS011;10365;52.578;8.138;2023-12-20T02:50:45;20.25;;;3.60;;
20411;SDS011;10365;52.578;8.138;2023-12-20T02:53:11;12.80;;;3.60;;
20411;SDS011;10365;52.578;8.138;2023-12-20T02:55:36;12.20;;;3.38;;
20411;SDS011;10365;52.578;8.138;2023-12-20T02:58:02;20.02;;;3.47;;
20411;SDS011;10365;52.578;8.138;2023-12-20T03:00:27;13.48;;;3.30;;
20411;SDS011;10365;52.578;8.138;2023-12-20T03:02:53;16.20;;;3.28;;
20411;SDS011;10365;52.578;8.138;2023-12-20T03:05:18;20.05;;;3.97;;
20411;SDS011;10365;52.578;8.138;2023-12-20T03:07:43;19.75;;;3.75;;
20411;SDS011;10365;52.578;8.138;2023-12-20T03:10:09;19.17;;;4.07;;
20411;SDS011;10365;52.578;8.138;2023-12-20T03:12:34;19.17;;;3.78;;
20411;SDS011;10365;52.578;8.138;2023-12-20T03:15:00;11.20;;;3.92;;
20411;SDS011;10365;52.578;8.138;2023-12-20T03:17:25;17.45;;;3.97;;
20411;SDS011;10365;52.578;8.138;2023-12-20T03:19:50;18.02;;;3.90;;
20411;SDS011;10365;52.578;8.138;2023-12-20T03:22:15;15.20;;;4.28;;
20411;SDS011;10365;52.578;8.138;2023-12-20T03:24:41;20.25;;;3.85;;
20411;SDS011;10365;52.578;8.138;2023-12-20T03:27:06;24.55;;;4.60;;
20411;SDS011;10365;52.578;8.138;2023-12-20T03:29:31;13.82;;;3.72;;
20411;SDS011;10365;52.578;8.138;2023-12-20T03:31:57;18.45;;;4.68;;
20411;SDS011;10365;52.578;8.138;2023-12-20T03:34:22;20.23;;;3.38;;
20411;SDS011;10365;52.578;8.138;2023-12-20T03:36:47;19.83;;;4.15;;
20411;SDS011;10365;52.578;8.138;2023-12-20T03:39:13;20.35;;;3.40;;
20411;SDS011;10365;52.578;8.138;2023-12-20T03:41:38;28.73;;;4.32;;
20411;SDS011;10365;52.578;8.138;2023-12-20T03:44:03;18.50;;;4.18;;
20411;SDS011;10365;52.578;8.138;2023-12-20T03:46:29;17.85;;;3.60;;
20411;SDS011;10365;52.578;8.138;2023-12-20T03:48:54;14.10;;;3.90;;
20411;SDS011;10365;52.578;8.138;2023-12-20T03:51:19;20.00;;;3.65;;
20411;SDS011;10365;52.578;8.138;2023-12-20T03:53:45;13.15;;;3.55;;
20411;SDS011;10365;52.578;8.138;2023-12-20T03:56:10;17.83;;;4.13;;
20411;SDS011;10365;52.578;8.138;2023-12-20T03:58:35;18.65;;;4.15;;
20411;SDS011;10365;52.578;8.138;2023-12-20T04:01:01;17.90;;;3.90;;
20411;SDS011;10365;52.578;8.138;2023-12-20T04:03:26;24.30;;;4.70;;
20411;SDS011;10365;52.578;8.138;2023-12-20T04:05:51;32.33;;;5.63;;
20411;SDS011;10365;52.578;8.138;2023-12-20T04:08:17;23.27;;;4.22;;
20411;SDS011;10365;52.578;8.138;2023-12-20T04:10:42;18.60;;;4.60;;
20411;SDS011;10365;52.578;8.138;2023-12-20T04:13:07;19.08;;;4.25;;
20411;SDS011;10365;52.578;8.138;2023-12-20T04:15:33;28.30;;;4.15;;
20411;SDS011;10365;52.578;8.138;2023-12-20T04:17:58;23.95;;;4.22;;
20411;SDS011;10365;52.578;8.138;2023-12-20T04:20:23;22.67;;;4.50;;
20411;SDS011;10365;52.578;8.138;2023-12-20T04:22:49;16.02;;;4.15;;
20411;SDS011;10365;52.578;8.138;2023-12-20T04:25:14;21.05;;;4.22;;
20411;SDS011;10365;52.578;8.138;2023-12-20T04:27:39;13.93;;;3.95;;
20411;SDS011;10365;52.578;8.138;2023-12-20T04:30:05;20.15;;;4.85;;
20411;SDS011;10365;52.578;8.138;2023-12-20T04:32:30;29.92;;;4.88;;
20411;SDS011;10365;52.578;8.138;2023-12-20T04:34:56;19.92;;;4.43;;
20411;SDS011;10365;52.578;8.138;2023-12-20T04:37:22;24.45;;;4.72;;
20411;SDS011;10365;52.578;8.138;2023-12-20T04:39:47;17.90;;;5.00;;
20411;SDS011;10365;52.578;8.138;2023-12-20T04:42:12;25.20;;;4.55;;
20411;SDS011;10365;52.578;8.138;2023-12-20T04:44:38;20.58;;;4.82;;
20411;SDS011;10365;52.578;8.138;2023-12-20T04:47:03;22.88;;;4.45;;
20411;SDS011;10365;52.578;8.138;2023-12-20T04:49:28;20.08;;;5.38;;
20411;SDS011;10365;52.578;8.138;2023-12-20T04:51:54;16.00;;;4.75;;
20411;SDS011;10365;52.578;8.138;2023-12-20T04:54:19;20.85;;;5.38;;
20411;SDS011;10365;52.578;8.138;2023-12-20T04:56:44;35.22;;;5.35;;
20411;SDS011;10365;52.578;8.138;2023-12-20T04:59:10;25.48;;;6.00;;
20411;SDS011;10365;52.578;8.138;2023-12-20T05:01:35;20.45;;;4.95;;
20411;SDS011;10365;52.578;8.138;2023-12-20T05:04:00;25.73;;;4.57;;
20411;SDS011;10365;52.578;8.138;2023-12-20T05:06:26;17.77;;;5.07;;
20411;SDS011;10365;52.578;8.138;2023-12-20T05:08:51;30.98;;;5.93;;
20411;SDS011;10365;52.578;8.138;2023-12-20T05:11:16;29.80;;;5.10;;
20411;SDS011;10365;52.578;8.138;2023-12-20T05:13:42;25.40;;;5.35;;
20411;SDS011;10365;52.578;8.138;2023-12-20T05:16:07;18.90;;;5.03;;
20411;SDS011;10365;52.578;8.138;2023-12-20T05:18:34;19.88;;;4.68;;
20411;SDS011;10365;52.578;8.138;2023-12-20T05:20:59;17.25;;;4.25;;
20411;SDS011;10365;52.578;8.138;2023-12-20T05:23:24;19.70;;;4.75;;
20411;SDS011;10365;52.578;8.138;2023-12-20T05:25:50;26.90;;;5.18;;
20411;SDS011;10365;52.578;8.138;2023-12-20T05:28:15;24.85;;;5.68;;
20411;SDS011;10365;52.578;8.138;2023-12-20T05:30:40;32.00;;;5.35;;
20411;SDS011;10365;52.578;8.138;2023-12-20T05:33:06;22.48;;;4.80;;
20411;SDS011;10365;52.578;8.138;2023-12-20T05:35:31;26.25;;;4.63;;
20411;SDS011;10365;52.578;8.138;2023-12-20T05:37:56;26.50;;;5.38;;
20411;SDS011;10365;52.578;8.138;2023-12-20T05:40:22;20.63;;;4.72;;
20411;SDS011;10365;52.578;8.138;2023-12-20T05:42:47;25.48;;;5.53;;
20411;SDS011;10365;52.578;8.138;2023-12-20T05:45:14;33.67;;;4.85;;
20411;SDS011;10365;52.578;8.138;2023-12-20T05:47:39;26.20;;;6.47;;
20411;SDS011;10365;52.578;8.138;2023-12-20T05:50:05;19.27;;;4.22;;
20411;SDS011;10365;52.578;8.138;2023-12-20T05:52:30;36.22;;;5.05;;
20411;SDS011;10365;52.578;8.138;2023-12-20T05:54:56;33.00;;;4.68;;
20411;SDS011;10365;52.578;8.138;2023-12-20T05:57:23;26.98;;;5.32;;
20411;SDS011;10365;52.578;8.138;2023-12-20T05:59:48;25.55;;;4.22;;
20411;SDS011;10365;52.578;8.138;2023-12-20T06:02:13;26.02;;;4.45;;
20411;SDS011;10365;52.578;8.138;2023-12-20T06:04:41;18.13;;;4.43;;
20411;SDS011;10365;52.578;8.138;2023-12-20T06:07:07;19.08;;;4.70;;
20411;SDS011;10365;52.578;8.138;2023-12-20T06:09:32;23.33;;;3.92;;
20411;SDS011;10365;52.578;8.138;2023-12-20T06:11:57;30.88;;;4.45;;
20411;SDS011;10365;52.578;8.138;2023-12-20T06:14:23;25.63;;;4.57;;
20411;SDS011;10365;52.578;8.138;2023-12-20T06:16:48;28.30;;;4.47;;
20411;SDS011;10365;52.578;8.138;2023-12-20T06:19:13;21.05;;;3.83;;
20411;SDS011;10365;52.578;8.138;2023-12-20T06:21:39;19.35;;;3.92;;
20411;SDS011;10365;52.578;8.138;2023-12-20T06:24:04;29.85;;;5.10;;
20411;SDS011;10365;52.578;8.138;2023-12-20T06:26:30;29.23;;;4.95;;
20411;SDS011;10365;52.578;8.138;2023-12-20T06:28:55;28.90;;;4.30;;
20411;SDS011;10365;52.578;8.138;2023-12-20T06:31:20;29.08;;;4.97;;
20411;SDS011;10365;52.578;8.138;2023-12-20T06:33:46;21.50;;;4.28;;
20411;SDS011;10365;52.578;8.138;2023-12-20T06:36:11;27.73;;;3.92;;
20411;SDS011;10365;52.578;8.138;2023-12-20T06:38:37;26.67;;;5.45;;
20411;SDS011;10365;52.578;8.138;2023-12-20T06:41:03;27.05;;;5.43;;
20411;SDS011;10365;52.578;8.138;2023-12-20T06:43:29;32.63;;;4.13;;
20411;SDS011;10365;52.578;8.138;2023-12-20T06:45:55;26.73;;;4.53;;
20411;SDS011;10365;52.578;8.138;2023-12-20T06:48:20;20.10;;;4.28;;
20411;SDS011;10365;52.578;8.138;2023-12-20T06:50:46;25.55;;;3.85;;
20411;SDS011;10365;52.578;8.138;2023-12-20T06:53:11;24.85;;;4.20;;
20411;SDS011;10365;52.578;8.138;2023-12-20T06:55:36;23.48;;;4.47;;
20411;SDS011;10365;52.578;8.138;2023-12-20T06:58:03;29.17;;;3.47;;
20411;SDS011;10365;52.578;8.138;2023-12-20T07:00:28;25.85;;;4.30;;
20411;SDS011;10365;52.578;8.138;2023-12-20T07:02:54;22.00;;;3.78;;
20411;SDS011;10365;52.578;8.138;2023-12-20T07:05:19;28.17;;;3.78;;
20411;SDS011;10365;52.578;8.138;2023-12-20T07:07:45;25.10;;;4.05;;
20411;SDS011;10365;52.578;8.138;2023-12-20T07:10:11;29.88;;;4.90;;
20411;SDS011;10365;52.578;8.138;2023-12-20T07:12:36;19.25;;;3.58;;
20411;SDS011;10365;52.578;8.138;2023-12-20T07:15:02;23.48;;;3.60;;
20411;SDS011;10365;52.578;8.138;2023-12-20T07:17:27;18.77;;;4.03;;
20411;SDS011;10365;52.578;8.138;2023-12-20T07:19:53;24.45;;;3.85;;
20411;SDS011;10365;52.578;8.138;2023-12-20T07:22:18;21.08;;;4.63;;
20411;SDS011;10365;52.578;8.138;2023-12-20T07:24:43;18.40;;;4.13;;
20411;SDS011;10365;52.578;8.138;2023-12-20T07:27:09;18.45;;;3.78;;
20411;SDS011;10365;52.578;8.138;2023-12-20T07:29:34;30.35;;;4.65;;
20411;SDS011;10365;52.578;8.138;2023-12-20T07:31:59;19.17;;;3.50;;
20411;SDS011;10365;52.578;8.138;2023-12-20T07:34:25;31.70;;;5.25;;
20411;SDS011;10365;52.578;8.138;2023-12-20T07:36:51;27.58;;;4.25;;
20411;SDS011;10365;52.578;8.138;2023-12-20T07:39:16;17.02;;;3.55;;
20411;SDS011;10365;52.578;8.138;2023-12-20T07:41:41;30.60;;;4.18;;
20411;SDS011;10365;52.578;8.138;2023-12-20T07:44:06;19.73;;;3.70;;
20411;SDS011;10365;52.578;8.138;2023-12-20T07:46:32;21.90;;;3.40;;
20411;SDS011;10365;52.578;8.138;2023-12-20T07:48:58;19.88;;;3.08;;
20411;SDS011;10365;52.578;8.138;2023-12-20T07:51:23;21.48;;;3.55;;
20411;SDS011;10365;52.578;8.138;2023-12-20T07:53:48;24.23;;;3.22;;
20411;SDS011;10365;52.578;8.138;2023-12-20T07:56:14;21.55;;;3.22;;
20411;SDS011;10365;52.578;8.138;2023-12-20T07:58:40;24.42;;;3.80;;
20411;SDS011;10365;52.578;8.138;2023-12-20T08:01:05;24.60;;;3.30;;
20411;SDS011;10365;52.578;8.138;2023-12-20T08:03:30;27.52;;;4.00;;
20411;SDS011;10365;52.578;8.138;2023-12-20T08:05:56;24.85;;;3.40;;
20411;SDS011;10365;52.578;8.138;2023-12-20T08:08:21;17.17;;;3.47;;
20411;SDS011;10365;52.578;8.138;2023-12-20T08:10:47;17.70;;;3.03;;
20411;SDS011;10365;52.578;8.138;2023-12-20T08:13:12;22.08;;;2.88;;
20411;SDS011;10365;52.578;8.138;2023-12-20T08:15:37;22.63;;;3.97;;
20411;SDS011;10365;52.578;8.138;2023-12-20T08:18:02;21.08;;;3.75;;
20411;SDS011;10365;52.578;8.138;2023-12-20T08:20:28;16.63;;;3.00;;
20411;SDS011;10365;52.578;8.138;2023-12-20T08:22:53;15.07;;;3.08;;
20411;SDS011;10365;52.578;8.138;2023-12-20T08:25:18;23.90;;;3.72;;
20411;SDS011;10365;52.578;8.138;2023-12-20T08:27:45;18.90;;;3.28;;
20411;SDS011;10365;52.578;8.138;2023-12-20T08:30:10;30.63;;;2.88;;
20411;SDS011;10365;52.578;8.138;2023-12-20T08:32:36;15.27;;;2.78;;
20411;SDS011;10365;52.578;8.138;2023-12-20T08:35:01;18.10;;;2.90;;
20411;SDS011;10365;52.578;8.138;2023-12-20T08:37:26;15.18;;;2.72;;
20411;SDS011;10365;52.578;8.138;2023-12-20T08:39:52;17.92;;;3.17;;
20411;SDS011;10365;52.578;8.138;2023-12-20T08:42:18;22.17;;;2.78;;
20411;SDS011;10365;52.578;8.138;2023-12-20T08:44:43;27.15;;;3.88;;
20411;SDS011;10365;52.578;8.138;2023-12-20T08:47:09;17.77;;;3.08;;
20411;SDS011;10365;52.578;8.138;2023-12-20T08:49:38;17.42;;;3.08;;
20411;SDS011;10365;52.578;8.138;2023-12-20T08:52:04;17.88;;;2.22;;
20411;SDS011;10365;52.578;8.138;2023-12-20T08:54:29;13.65;;;3.00;;
20411;SDS011;10365;52.578;8.138;2023-12-20T08:56:54;16.80;;;2.80;;
20411;SDS011;10365;52.578;8.138;2023-12-20T08:59:21;22.75;;;3.20;;
20411;SDS011;10365;52.578;8.138;2023-12-20T09:01:46;26.77;;;3.10;;
20411;SDS011;10365;52.578;8.138;2023-12-20T09:04:13;13.05;;;2.38;;
20411;SDS011;10365;52.578;8.138;2023-12-20T09:06:38;20.73;;;2.58;;
20411;SDS011;10365;52.578;8.138;2023-12-20T09:09:03;14.65;;;3.55;;
20411;SDS011;10365;52.578;8.138;2023-12-20T09:11:29;17.58;;;2.78;;
20411;SDS011;10365;52.578;8.138;2023-12-20T09:13:54;20.70;;;3.53;;
20411;SDS011;10365;52.578;8.138;2023-12-20T09:16:19;26.67;;;4.35;;
20411;SDS011;10365;52.578;8.138;2023-12-20T09:18:45;15.70;;;2.80;;
20411;SDS011;10365;52.578;8.138;2023-12-20T09:21:10;24.58;;;3.83;;
20411;SDS011;10365;52.578;8.138;2023-12-20T09:23:35;14.13;;;2.95;;
20411;SDS011;10365;52.578;8.138;2023-12-20T09:26:02;12.77;;;2.65;;
20411;SDS011;10365;52.578;8.138;2023-12-20T09:28:27;16.58;;;3.35;;
20411;SDS011;10365;52.578;8.138;2023-12-20T09:30:53;15.80;;;3.78;;
20411;SDS011;10365;52.578;8.138;2023-12-20T09:33:18;19.05;;;4.38;;
20411;SDS011;10365;52.578;8.138;2023-12-20T09:35:43;16.23;;;2.90;;
20411;SDS011;10365;52.578;8.138;2023-12-20T09:38:09;16.40;;;3.13;;
20411;SDS011;10365;52.578;8.138;2023-12-20T09:40:34;17.63;;;3.08;;
20411;SDS011;10365;52.578;8.138;2023-12-20T09:43:03;21.95;;;3.55;;
20411;SDS011;10365;52.578;8.138;2023-12-20T09:45:30;14.93;;;2.65;;
20411;SDS011;10365;52.578;8.138;2023-12-20T09:47:56;23.40;;;3.05;;
20411;SDS011;10365;52.578;8.138;2023-12-20T09:50:22;15.00;;;2.90;;
20411;SDS011;10365;52.578;8.138;2023-12-20T09:52:52;16.85;;;3.00;;
20411;SDS011;10365;52.578;8.138;2023-12-20T09:55:17;12.05;;;2.88;;
20411;SDS011;10365;52.578;8.138;2023-12-20T09:57:44;20.88;;;3.83;;
20411;SDS011;10365;52.578;8.138;2023-12-20T10:00:09;10.73;;;2.28;;
20411;SDS011;10365;52.578;8.138;2023-12-20T10:02:38;18.42;;;4.15;;
20411;SDS011;10365;52.578;8.138;2023-12-20T10:05:06;16.30;;;3.58;;
20411;SDS011;10365;52.578;8.138;2023-12-20T10:07:34;14.90;;;2.60;;
20411;SDS011;10365;52.578;8.138;2023-12-20T10:09:59;18.05;;;3.03;;
20411;SDS011;10365;52.578;8.138;2023-12-20T10:12:25;21.77;;;3.60;;
20411;SDS011;10365;52.578;8.138;2023-12-20T10:14:50;17.73;;;3.67;;
20411;SDS011;10365;52.578;8.138;2023-12-20T10:17:16;18.65;;;3.13;;
20411;SDS011;10365;52.578;8.138;2023-12-20T10:19:42;27.88;;;3.10;;
20411;SDS011;10365;52.578;8.138;2023-12-20T10:22:07;18.98;;;3.97;;
20411;SDS011;10365;52.578;8.138;2023-12-20T10:24:33;23.83;;;3.38;;
20411;SDS011;10365;52.578;8.138;2023-12-20T10:27:02;22.42;;;3.55;;
20411;SDS011;10365;52.578;8.138;2023-12-20T10:29:32;19.45;;;2.80;;
20411;SDS011;10365;52.578;8.138;2023-12-20T10:31:58;27.83;;;4.03;;
20411;SDS011;10365;52.578;8.138;2023-12-20T10:34:23;16.63;;;3.15;;
20411;SDS011;10365;52.578;8.138;2023-12-20T10:36:49;19.13;;;2.55;;
20411;SDS011;10365;52.578;8.138;2023-12-20T10:39:14;24.98;;;3.08;;
20411;SDS011;10365;52.578;8.138;2023-12-20T10:41:40;20.40;;;2.85;;
20411;SDS011;10365;52.578;8.138;2023-12-20T10:44:07;25.70;;;3.63;;
20411;SDS011;10365;52.578;8.138;2023-12-20T10:46:33;17.98;;;3.00;;
20411;SDS011;10365;52.578;8.138;2023-12-20T10:48:59;14.02;;;3.00;;
20411;SDS011;10365;52.578;8.138;2023-12-20T10:51:27;21.40;;;4.30;;
20411;SDS011;10365;52.578;8.138;2023-12-20T10:53:54;20.52;;;5.28;;
20411;SDS011;10365;52.578;8.138;2023-12-20T10:56:20;13.68;;;2.15;;
20411;SDS011;10365;52.578;8.138;2023-12-20T10:58:49;6.25;;;1.48;;
20411;SDS011;10365;52.578;8.138;2023-12-20T11:01:14;7.32;;;1.88;;
20411;SDS011;10365;52.578;8.138;2023-12-20T11:03:42;8.60;;;1.50;;
20411;SDS011;10365;52.578;8.138;2023-12-20T11:09:04;3.92;;;0.77;;
20411;SDS011;10365;52.578;8.138;2023-12-20T11:12:17;5.45;;;1.30;;
20411;SDS011;10365;52.578;8.138;2023-12-20T11:14:23;6.72;;;0.60;;
20411;SDS011;10365;52.578;8.138;2023-12-20T11:16:50;3.90;;;0.75;;
20411;SDS011;10365;52.578;8.138;2023-12-20T11:19:16;3.75;;;0.73;;
20411;SDS011;10365;52.578;8.138;2023-12-20T11:21:42;6.78;;;1.50;;
20411;SDS011;10365;52.578;8.138;2023-12-20T11:24:07;4.80;;;1.15;;
20411;SDS011;10365;52.578;8.138;2023-12-20T11:26:33;6.43;;;1.75;;
20411;SDS011;10365;52.578;8.138;2023-12-20T11:31:42;5.18;;;0.82;;
20411;SDS011;10365;52.578;8.138;2023-12-20T11:34:13;5.93;;;0.90;;
20411;SDS011;10365;52.578;8.138;2023-12-20T11:36:39;4.55;;;0.88;;
20411;SDS011;10365;52.578;8.138;2023-12-20T11:39:04;7.30;;;0.90;;
20411;SDS011;10365;52.578;8.138;2023-12-20T11:41:33;8.95;;;1.48;;
20411;SDS011;10365;52.578;8.138;2023-12-20T11:43:59;7.00;;;0.88;;
20411;SDS011;10365;52.578;8.138;2023-12-20T11:46:26;4.82;;;1.55;;
20411;SDS011;10365;52.578;8.138;2023-12-20T11:48:51;7.68;;;1.30;;
20411;SDS011;10365;52.578;8.138;2023-12-20T11:51:16;3.53;;;0.85;;
20411;SDS011;10365;52.578;8.138;2023-12-20T11:53:42;4.63;;;0.98;;
20411;SDS011;10365;52.578;8.138;2023-12-20T11:56:07;8.48;;;1.52;;
20411;SDS011;10365;52.578;8.138;2023-12-20T11:58:33;8.10;;;1.38;;
20411;SDS011;10365;52.578;8.138;2023-12-20T12:00:59;8.23;;;1.02;;
20411;SDS011;10365;52.578;8.138;2023-12-20T12:03:24;3.25;;;0.68;;
20411;SDS011;10365;52.578;8.138;2023-12-20T12:05:49;5.18;;;0.60;;
20411;SDS011;10365;52.578;8.138;2023-12-20T12:08:16;4.32;;;0.90;;
20411;SDS011;10365;52.578;8.138;2023-12-20T12:10:42;8.18;;;0.93;;
20411;SDS011;10365;52.578;8.138;2023-12-20T12:13:08;6.07;;;1.05;;
20411;SDS011;10365;52.578;8.138;2023-12-20T12:15:35;5.47;;;1.13;;
20411;SDS011;10365;52.578;8.138;2023-12-20T12:18:00;5.18;;;0.88;;
20411;SDS011;10365;52.578;8.138;2023-12-20T12:20:25;5.78;;;0.88;;
20411;SDS011;10365;52.578;8.138;2023-12-20T12:23:03;6.82;;;0.80;;
20411;SDS011;10365;52.578;8.138;2023-12-20T12:25:29;7.53;;;1.08;;
20411;SDS011;10365;52.578;8.138;2023-12-20T12:27:55;4.13;;;0.65;;
20411;SDS011;10365;52.578;8.138;2023-12-20T12:30:21;4.25;;;0.80;;
20411;SDS011;10365;52.578;8.138;2023-12-20T12:32:46;8.43;;;0.88;;
20411;SDS011;10365;52.578;8.138;2023-12-20T12:35:11;3.78;;;0.73;;
20411;SDS011;10365;52.578;8.138;2023-12-20T12:37:37;9.30;;;0.80;;
20411;SDS011;10365;52.578;8.138;2023-12-20T12:40:05;5.55;;;0.70;;
20411;SDS011;10365;52.578;8.138;2023-12-20T12:42:30;11.48;;;1.30;;
20411;SDS011;10365;52.578;8.138;2023-12-20T12:44:55;6.97;;;1.42;;
20411;SDS011;10365;52.578;8.138;2023-12-20T12:47:21;8.18;;;1.58;;
20411;SDS011;10365;52.578;8.138;2023-12-20T12:49:47;9.60;;;1.35;;
20411;SDS011;10365;52.578;8.138;2023-12-20T12:52:13;5.97;;;0.85;;
20411;SDS011;10365;52.578;8.138;2023-12-20T12:54:38;5.15;;;0.93;;
20411;SDS011;10365;52.578;8.138;2023-12-20T12:57:03;11.23;;;1.08;;
20411;SDS011;10365;52.578;8.138;2023-12-20T12:59:29;10.75;;;1.00;;
20411;SDS011;10365;52.578;8.138;2023-12-20T13:01:54;6.72;;;0.95;;
20411;SDS011;10365;52.578;8.138;2023-12-20T13:04:19;12.20;;;1.95;;
20411;SDS011;10365;52.578;8.138;2023-12-20T13:06:45;8.88;;;1.27;;
20411;SDS011;10365;52.578;8.138;2023-12-20T13:09:10;6.95;;;0.90;;
20411;SDS011;10365;52.578;8.138;2023-12-20T13:11:35;3.95;;;0.88;;
20411;SDS011;10365;52.578;8.138;2023-12-20T13:14:01;8.57;;;1.17;;
20411;SDS011;10365;52.578;8.138;2023-12-20T13:16:26;8.18;;;1.00;;
20411;SDS011;10365;52.578;8.138;2023-12-20T13:18:52;4.93;;;1.08;;
20411;SDS011;10365;52.578;8.138;2023-12-20T13:21:17;8.35;;;1.40;;
20411;SDS011;10365;52.578;8.138;2023-12-20T13:23:42;9.63;;;1.02;;
20411;SDS011;10365;52.578;8.138;2023-12-20T13:26:08;8.90;;;1.40;;
20411;SDS011;10365;52.578;8.138;2023-12-20T13:28:33;9.23;;;0.98;;
20411;SDS011;10365;52.578;8.138;2023-12-20T13:30:58;9.60;;;1.05;;
20411;SDS011;10365;52.578;8.138;2023-12-20T13:33:24;8.48;;;1.70;;
20411;SDS011;10365;52.578;8.138;2023-12-20T13:35:50;6.07;;;1.35;;
20411;SDS011;10365;52.578;8.138;2023-12-20T13:38:15;4.55;;;1.05;;
20411;SDS011;10365;52.578;8.138;2023-12-20T13:40:41;9.80;;;1.40;;
20411;SDS011;10365;52.578;8.138;2023-12-20T13:43:07;10.85;;;1.40;;
20411;SDS011;10365;52.578;8.138;2023-12-20T13:45:32;5.63;;;0.90;;
20411;SDS011;10365;52.578;8.138;2023-12-20T13:47:58;7.88;;;1.02;;
20411;SDS011;10365;52.578;8.138;2023-12-20T13:50:24;11.45;;;1.00;;
20411;SDS011;10365;52.578;8.138;2023-12-20T13:52:49;6.38;;;1.05;;
20411;SDS011;10365;52.578;8.138;2023-12-20T13:55:14;6.05;;;1.05;;
20411;SDS011;10365;52.578;8.138;2023-12-20T13:57:40;8.88;;;1.30;;
20411;SDS011;10365;52.578;8.138;2023-12-20T14:00:06;5.57;;;1.00;;
20411;SDS011;10365;52.578;8.138;2023-12-20T14:02:38;10.88;;;1.55;;
20411;SDS011;10365;52.578;8.138;2023-12-20T14:05:03;5.32;;;1.02;;
20411;SDS011;10365;52.578;8.138;2023-12-20T14:07:29;7.35;;;1.13;;
20411;SDS011;10365;52.578;8.138;2023-12-20T14:09:54;6.50;;;1.10;;
20411;SDS011;10365;52.578;8.138;2023-12-20T14:12:20;7.15;;;1.00;;
20411;SDS011;10365;52.578;8.138;2023-12-20T14:14:45;10.80;;;1.05;;
20411;SDS011;10365;52.578;8.138;2023-12-20T14:17:10;11.18;;;1.50;;
20411;SDS011;10365;52.578;8.138;2023-12-20T14:19:36;5.70;;;0.80;;
20411;SDS011;10365;52.578;8.138;2023-12-20T14:22:01;6.93;;;1.08;;
20411;SDS011;10365;52.578;8.138;2023-12-20T14:24:27;10.57;;;1.10;;
20411;SDS011;10365;52.578;8.138;2023-12-20T14:26:53;13.20;;;2.72;;
20411;SDS011;10365;52.578;8.138;2023-12-20T14:29:18;6.88;;;0.85;;
20411;SDS011;10365;52.578;8.138;2023-12-20T14:31:43;9.80;;;1.23;;
20411;SDS011;10365;52.578;8.138;2023-12-20T14:34:09;10.07;;;0.82;;